sensor_id;sensor_type;location;lat;lon;timestamp;temperature;humidity
65369;HTU21D;51970;53.484;49.488;2023-05-23T00:01:12;14.29;50.11
65369;HTU21D;51970;53.484;49.488;2023-05-23T00:03:39;14.19;50.46
65369;HTU21D;51970;53.484;49.488;2023-05-23T00:06:05;14.18;50.67
65369;HTU21D;51970;53.484;49.488;2023-05-23T00:08:31;14.08;51.32
65369;HTU21D;51970;53.484;49.488;2023-05-23T00:10:58;14.09;51.20
65369;HTU21D;51970;53.484;49.488;2023-05-23T00:13:24;14.03;51.55
65369;HTU21D;51970;53.484;49.488;2023-05-23T00:15:50;13.95;51.91
65369;HTU21D;51970;53.484;49.488;2023-05-23T00:18:17;13.86;52.23
65369;HTU21D;51970;53.484;49.488;2023-05-23T00:20:44;13.84;52.11
65369;HTU21D;51970;53.484;49.488;2023-05-23T00:23:11;13.83;52.40
65369;HTU21D;51970;53.484;49.488;2023-05-23T00:25:46;13.79;52.64
65369;HTU21D;51970;53.484;49.488;2023-05-23T00:28:17;13.77;52.38
65369;HTU21D;51970;53.484;49.488;2023-05-23T00:30:43;13.77;52.78
65369;HTU21D;51970;53.484;49.488;2023-05-23T00:33:09;13.75;53.00
65369;HTU21D;51970;53.484;49.488;2023-05-23T00:35:39;13.74;53.06
65369;HTU21D;51970;53.484;49.488;2023-05-23T00:38:05;13.71;52.85
65369;HTU21D;51970;53.484;49.488;2023-05-23T00:40:33;13.75;52.53
65369;HTU21D;51970;53.484;49.488;2023-05-23T00:42:59;13.79;52.54
65369;HTU21D;51970;53.484;49.488;2023-05-23T00:45:26;13.78;52.63
65369;HTU21D;51970;53.484;49.488;2023-05-23T00:47:52;13.79;52.62
65369;HTU21D;51970;53.484;49.488;2023-05-23T00:50:19;13.80;52.49
65369;HTU21D;51970;53.484;49.488;2023-05-23T00:52:47;13.83;52.94
65369;HTU21D;51970;53.484;49.488;2023-05-23T00:55:15;13.81;52.78
65369;HTU21D;51970;53.484;49.488;2023-05-23T00:57:41;13.90;52.62
65369;HTU21D;51970;53.484;49.488;2023-05-23T01:00:12;14.17;51.88
65369;HTU21D;51970;53.484;49.488;2023-05-23T01:02:46;14.50;51.75
65369;HTU21D;51970;53.484;49.488;2023-05-23T01:05:16;14.66;51.43
65369;HTU21D;51970;53.484;49.488;2023-05-23T01:07:47;14.67;51.57
65369;HTU21D;51970;53.484;49.488;2023-05-23T01:10:14;14.69;51.98
65369;HTU21D;51970;53.484;49.488;2023-05-23T01:15:41;15.15;51.06
65369;HTU21D;51970;53.484;49.488;2023-05-23T01:18:15;15.22;49.57
65369;HTU21D;51970;53.484;49.488;2023-05-23T01:20:49;15.52;49.67
65369;HTU21D;51970;53.484;49.488;2023-05-23T01:29:55;16.61;46.18
65369;HTU21D;51970;53.484;49.488;2023-05-23T01:31:57;17.05;46.29
65369;HTU21D;51970;53.484;49.488;2023-05-23T01:34:23;17.58;45.32
65369;HTU21D;51970;53.484;49.488;2023-05-23T01:36:53;18.10;42.36
65369;HTU21D;51970;53.484;49.488;2023-05-23T01:39:23;18.49;42.65
65369;HTU21D;51970;53.484;49.488;2023-05-23T01:41:50;18.68;40.71
65369;HTU21D;51970;53.484;49.488;2023-05-23T01:44:16;18.82;41.26
65369;HTU21D;51970;53.484;49.488;2023-05-23T01:46:43;19.03;40.56
65369;HTU21D;51970;53.484;49.488;2023-05-23T01:49:11;19.56;40.52
65369;HTU21D;51970;53.484;49.488;2023-05-23T01:51:39;19.86;38.10
65369;HTU21D;51970;53.484;49.488;2023-05-23T01:54:07;19.90;38.86
65369;HTU21D;51970;53.484;49.488;2023-05-23T01:56:33;20.16;38.94
65369;HTU21D;51970;53.484;49.488;2023-05-23T01:59:00;20.57;38.82
65369;HTU21D;51970;53.484;49.488;2023-05-23T02:01:26;21.11;36.72
65369;HTU21D;51970;53.484;49.488;2023-05-23T02:03:53;21.74;35.13
65369;HTU21D;51970;53.484;49.488;2023-05-23T02:06:19;21.96;34.84
65369;HTU21D;51970;53.484;49.488;2023-05-23T02:08:45;22.22;34.36
65369;HTU21D;51970;53.484;49.488;2023-05-23T02:11:11;22.77;33.21
65369;HTU21D;51970;53.484;49.488;2023-05-23T02:13:37;22.96;32.75
65369;HTU21D;51970;53.484;49.488;2023-05-23T02:16:05;23.28;32.22
65369;HTU21D;51970;53.484;49.488;2023-05-23T02:18:33;23.84;32.26
65369;HTU21D;51970;53.484;49.488;2023-05-23T02:21:04;23.56;32.12
65369;HTU21D;51970;53.484;49.488;2023-05-23T02:23:30;23.92;31.28
65369;HTU21D;51970;53.484;49.488;2023-05-23T02:25:56;24.02;31.22
65369;HTU21D;51970;53.484;49.488;2023-05-23T02:28:22;24.62;30.38
65369;HTU21D;51970;53.484;49.488;2023-05-23T02:30:48;25.62;29.53
65369;HTU21D;51970;53.484;49.488;2023-05-23T02:33:17;26.45;27.82
65369;HTU21D;51970;53.484;49.488;2023-05-23T02:35:45;26.61;26.87
65369;HTU21D;51970;53.484;49.488;2023-05-23T02:38:12;26.86;26.46
65369;HTU21D;51970;53.484;49.488;2023-05-23T02:40:38;26.60;25.89
65369;HTU21D;51970;53.484;49.488;2023-05-23T02:43:04;26.77;25.45
65369;HTU21D;51970;53.484;49.488;2023-05-23T02:45:40;27.26;23.93
65369;HTU21D;51970;53.484;49.488;2023-05-23T02:48:06;27.35;24.30
65369;HTU21D;51970;53.484;49.488;2023-05-23T02:50:35;28.04;22.41
65369;HTU21D;51970;53.484;49.488;2023-05-23T02:53:05;28.33;22.13
65369;HTU21D;51970;53.484;49.488;2023-05-23T02:55:31;28.43;21.40
65369;HTU21D;51970;53.484;49.488;2023-05-23T02:58:00;28.60;20.95
65369;HTU21D;51970;53.484;49.488;2023-05-23T03:00:36;29.07;20.84
65369;HTU21D;51970;53.484;49.488;2023-05-23T03:03:06;29.05;20.50
65369;HTU21D;51970;53.484;49.488;2023-05-23T03:05:34;29.00;20.20
65369;HTU21D;51970;53.484;49.488;2023-05-23T03:08:01;29.05;20.57
65369;HTU21D;51970;53.484;49.488;2023-05-23T03:10:28;29.37;19.90
65369;HTU21D;51970;53.484;49.488;2023-05-23T03:12:55;29.48;19.67
65369;HTU21D;51970;53.484;49.488;2023-05-23T03:15:30;29.53;19.61
65369;HTU21D;51970;53.484;49.488;2023-05-23T03:18:02;28.92;19.83
65369;HTU21D;51970;53.484;49.488;2023-05-23T03:20:43;28.59;20.59
65369;HTU21D;51970;53.484;49.488;2023-05-23T03:23:16;28.73;20.41
65369;HTU21D;51970;53.484;49.488;2023-05-23T03:25:42;29.06;20.00
65369;HTU21D;51970;53.484;49.488;2023-05-23T03:28:13;29.46;19.57
65369;HTU21D;51970;53.484;49.488;2023-05-23T03:30:42;29.49;19.34
65369;HTU21D;51970;53.484;49.488;2023-05-23T03:33:09;27.74;21.96
65369;HTU21D;51970;53.484;49.488;2023-05-23T03:35:36;25.50;25.30
65369;HTU21D;51970;53.484;49.488;2023-05-23T03:38:14;23.96;28.59
65369;HTU21D;51970;53.484;49.488;2023-05-23T03:40:45;23.25;30.21
65369;HTU21D;51970;53.484;49.488;2023-05-23T03:43:35;22.80;31.35
65369;HTU21D;51970;53.484;49.488;2023-05-23T03:46:26;22.50;31.67
65369;HTU21D;51970;53.484;49.488;2023-05-23T03:48:59;22.49;32.26
65369;HTU21D;51970;53.484;49.488;2023-05-23T03:51:48;22.49;32.14
65369;HTU21D;51970;53.484;49.488;2023-05-23T03:54:48;22.55;32.28
65369;HTU21D;51970;53.484;49.488;2023-05-23T03:57:16;22.62;32.04
65369;HTU21D;51970;53.484;49.488;2023-05-23T04:00:03;22.62;31.12
65369;HTU21D;51970;53.484;49.488;2023-05-23T04:03:00;22.72;31.32
65369;HTU21D;51970;53.484;49.488;2023-05-23T04:06:12;22.72;31.01
65369;HTU21D;51970;53.484;49.488;2023-05-23T04:09:43;22.86;30.85
65369;HTU21D;51970;53.484;49.488;2023-05-23T04:12:35;22.87;30.91
65369;HTU21D;51970;53.484;49.488;2023-05-23T04:15:08;22.99;31.12
65369;HTU21D;51970;53.484;49.488;2023-05-23T04:17:46;23.07;31.26
65369;HTU21D;51970;53.484;49.488;2023-05-23T04:20:15;23.11;30.70
65369;HTU21D;51970;53.484;49.488;2023-05-23T04:23:00;23.36;30.32
65369;HTU21D;51970;53.484;49.488;2023-05-23T04:25:41;23.34;30.54
65369;HTU21D;51970;53.484;49.488;2023-05-23T04:28:14;23.35;30.44
65369;HTU21D;51970;53.484;49.488;2023-05-23T04:31:02;23.35;30.75
65369;HTU21D;51970;53.484;49.488;2023-05-23T04:34:09;23.53;30.16
65369;HTU21D;51970;53.484;49.488;2023-05-23T04:37:10;23.52;29.64
65369;HTU21D;51970;53.484;49.488;2023-05-23T04:40:22;23.50;29.89
65369;HTU21D;51970;53.484;49.488;2023-05-23T04:43:29;23.70;29.50
65369;HTU21D;51970;53.484;49.488;2023-05-23T04:46:34;23.89;29.07
65369;HTU21D;51970;53.484;49.488;2023-05-23T04:49:28;23.68;29.67
65369;HTU21D;51970;53.484;49.488;2023-05-23T04:52:15;23.74;30.04
65369;HTU21D;51970;53.484;49.488;2023-05-23T04:55:04;23.92;29.16
65369;HTU21D;51970;53.484;49.488;2023-05-23T04:57:31;24.05;28.88
65369;HTU21D;51970;53.484;49.488;2023-05-23T05:00:20;24.13;28.76
65369;HTU21D;51970;53.484;49.488;2023-05-23T05:03:12;24.06;30.17
65369;HTU21D;51970;53.484;49.488;2023-05-23T05:06:15;24.35;28.88
65369;HTU21D;51970;53.484;49.488;2023-05-23T05:08:44;24.58;28.90
65369;HTU21D;51970;53.484;49.488;2023-05-23T05:11:11;24.49;27.87
65369;HTU21D;51970;53.484;49.488;2023-05-23T05:13:47;24.33;28.53
65369;HTU21D;51970;53.484;49.488;2023-05-23T05:17:23;24.24;28.91
65369;HTU21D;51970;53.484;49.488;2023-05-23T05:20:26;24.33;28.46
65369;HTU21D;51970;53.484;49.488;2023-05-23T05:23:15;24.49;29.06
65369;HTU21D;51970;53.484;49.488;2023-05-23T05:26:18;24.63;28.03
65369;HTU21D;51970;53.484;49.488;2023-05-23T05:29:59;24.91;28.14
65369;HTU21D;51970;53.484;49.488;2023-05-23T05:33:00;24.94;27.70
65369;HTU21D;51970;53.484;49.488;2023-05-23T05:36:02;24.91;27.75
65369;HTU21D;51970;53.484;49.488;2023-05-23T05:39:19;25.16;26.97
65369;HTU21D;51970;53.484;49.488;2023-05-23T05:42:53;25.21;27.21
65369;HTU21D;51970;53.484;49.488;2023-05-23T05:45:50;25.14;26.61
65369;HTU21D;51970;53.484;49.488;2023-05-23T05:49:13;24.89;27.20
65369;HTU21D;51970;53.484;49.488;2023-05-23T05:51:59;25.05;27.82
65369;HTU21D;51970;53.484;49.488;2023-05-23T05:54:26;25.18;26.29
65369;HTU21D;51970;53.484;49.488;2023-05-23T05:57:05;25.27;26.42
65369;HTU21D;51970;53.484;49.488;2023-05-23T06:00:02;25.57;25.94
65369;HTU21D;51970;53.484;49.488;2023-05-23T06:03:07;25.67;25.22
65369;HTU21D;51970;53.484;49.488;2023-05-23T06:06:03;25.76;25.81
65369;HTU21D;51970;53.484;49.488;2023-05-23T06:08:39;25.66;25.56
65369;HTU21D;51970;53.484;49.488;2023-05-23T06:11:30;25.68;25.17
65369;HTU21D;51970;53.484;49.488;2023-05-23T06:14:28;25.74;25.21
65369;HTU21D;51970;53.484;49.488;2023-05-23T06:17:21;26.04;24.33
65369;HTU21D;51970;53.484;49.488;2023-05-23T06:20:21;26.25;23.91
65369;HTU21D;51970;53.484;49.488;2023-05-23T06:23:42;26.62;24.92
65369;HTU21D;51970;53.484;49.488;2023-05-23T06:26:47;26.76;22.33
65369;HTU21D;51970;53.484;49.488;2023-05-23T06:30:03;26.40;22.61
65369;HTU21D;51970;53.484;49.488;2023-05-23T06:33:14;26.37;23.55
65369;HTU21D;51970;53.484;49.488;2023-05-23T06:36:28;26.64;23.35
65369;HTU21D;51970;53.484;49.488;2023-05-23T06:40:07;26.65;21.12
65369;HTU21D;51970;53.484;49.488;2023-05-23T06:43:47;26.58;21.73
65369;HTU21D;51970;53.484;49.488;2023-05-23T06:47:09;26.53;22.05
65369;HTU21D;51970;53.484;49.488;2023-05-23T06:50:49;26.90;21.37
65369;HTU21D;51970;53.484;49.488;2023-05-23T06:53:26;27.20;20.92
65369;HTU21D;51970;53.484;49.488;2023-05-23T06:56:26;27.39;20.97
65369;HTU21D;51970;53.484;49.488;2023-05-23T06:59:06;27.38;21.33
65369;HTU21D;51970;53.484;49.488;2023-05-23T07:01:39;27.45;20.28
65369;HTU21D;51970;53.484;49.488;2023-05-23T07:04:17;27.43;20.16
65369;HTU21D;51970;53.484;49.488;2023-05-23T07:06:59;27.24;19.83
65369;HTU21D;51970;53.484;49.488;2023-05-23T07:10:18;27.06;20.41
65369;HTU21D;51970;53.484;49.488;2023-05-23T07:12:54;27.15;21.34
65369;HTU21D;51970;53.484;49.488;2023-05-23T07:15:44;27.46;20.49
65369;HTU21D;51970;53.484;49.488;2023-05-23T07:18:41;27.53;19.91
65369;HTU21D;51970;53.484;49.488;2023-05-23T07:21:47;27.36;19.67
65369;HTU21D;51970;53.484;49.488;2023-05-23T07:24:22;27.31;19.32
65369;HTU21D;51970;53.484;49.488;2023-05-23T07:27:44;27.38;19.47
65369;HTU21D;51970;53.484;49.488;2023-05-23T07:30:54;27.59;19.05
65369;HTU21D;51970;53.484;49.488;2023-05-23T07:33:46;27.43;19.22
65369;HTU21D;51970;53.484;49.488;2023-05-23T07:39:28;27.58;19.66
65369;HTU21D;51970;53.484;49.488;2023-05-23T07:42:45;27.76;19.13
65369;HTU21D;51970;53.484;49.488;2023-05-23T07:46:41;27.90;18.89
65369;HTU21D;51970;53.484;49.488;2023-05-23T07:52:55;27.80;16.51
65369;HTU21D;51970;53.484;49.488;2023-05-23T07:56:12;27.80;16.79
65369;HTU21D;51970;53.484;49.488;2023-05-23T07:59:43;27.69;17.22
65369;HTU21D;51970;53.484;49.488;2023-05-23T08:02:21;27.57;17.97
65369;HTU21D;51970;53.484;49.488;2023-05-23T08:13:12;28.28;16.89
65369;HTU21D;51970;53.484;49.488;2023-05-23T08:16:32;28.26;17.33
65369;HTU21D;51970;53.484;49.488;2023-05-23T08:19:36;28.27;17.09
65369;HTU21D;51970;53.484;49.488;2023-05-23T08:25:43;28.55;17.01
65369;HTU21D;51970;53.484;49.488;2023-05-23T08:28:43;28.48;16.51
65369;HTU21D;51970;53.484;49.488;2023-05-23T08:34:53;28.24;16.74
65369;HTU21D;51970;53.484;49.488;2023-05-23T08:37:49;28.39;15.99
65369;HTU21D;51970;53.484;49.488;2023-05-23T08:43:31;28.63;16.48
65369;HTU21D;51970;53.484;49.488;2023-05-23T08:46:51;28.65;16.42
65369;HTU21D;51970;53.484;49.488;2023-05-23T08:50:17;28.61;15.52
65369;HTU21D;51970;53.484;49.488;2023-05-23T08:57:16;28.84;14.81
65369;HTU21D;51970;53.484;49.488;2023-05-23T09:00:41;28.38;14.87
65369;HTU21D;51970;53.484;49.488;2023-05-23T09:03:32;28.35;14.71
65369;HTU21D;51970;53.484;49.488;2023-05-23T09:06:33;28.60;15.35
65369;HTU21D;51970;53.484;49.488;2023-05-23T09:16:42;29.31;15.30
65369;HTU21D;51970;53.484;49.488;2023-05-23T09:19:45;29.32;14.36
65369;HTU21D;51970;53.484;49.488;2023-05-23T09:23:04;29.20;15.10
65369;HTU21D;51970;53.484;49.488;2023-05-23T09:26:03;29.16;14.95
65369;HTU21D;51970;53.484;49.488;2023-05-23T09:28:59;29.32;15.07
65369;HTU21D;51970;53.484;49.488;2023-05-23T09:32:10;29.33;14.44
65369;HTU21D;51970;53.484;49.488;2023-05-23T09:35:32;28.92;15.13
65369;HTU21D;51970;53.484;49.488;2023-05-23T09:38:24;28.91;15.82
65369;HTU21D;51970;53.484;49.488;2023-05-23T09:41:38;29.19;15.23
65369;HTU21D;51970;53.484;49.488;2023-05-23T09:45:15;29.35;15.55
65369;HTU21D;51970;53.484;49.488;2023-05-23T09:47:58;29.28;15.26
65369;HTU21D;51970;53.484;49.488;2023-05-23T10:02:01;29.13;15.71
65369;HTU21D;51970;53.484;49.488;2023-05-23T11:09:27;30.17;15.90
65369;HTU21D;51970;53.484;49.488;2023-05-23T11:12:41;30.18;16.32
65369;HTU21D;51970;53.484;49.488;2023-05-23T11:15:54;30.11;15.39
65369;HTU21D;51970;53.484;49.488;2023-05-23T11:19:37;30.23;15.37
65369;HTU21D;51970;53.484;49.488;2023-05-23T11:28:59;29.96;15.35
65369;HTU21D;51970;53.484;49.488;2023-05-23T11:32:20;30.05;15.44
65369;HTU21D;51970;53.484;49.488;2023-05-23T11:35:41;29.96;14.84
65369;HTU21D;51970;53.484;49.488;2023-05-23T11:42:08;29.96;15.58
65369;HTU21D;51970;53.484;49.488;2023-05-23T11:55:56;29.71;14.90
65369;HTU21D;51970;53.484;49.488;2023-05-23T12:03:33;30.02;15.43
65369;HTU21D;51970;53.484;49.488;2023-05-23T12:07:19;29.76;15.93
65369;HTU21D;51970;53.484;49.488;2023-05-23T12:10:25;29.61;15.99
65369;HTU21D;51970;53.484;49.488;2023-05-23T12:13:45;29.88;16.54
65369;HTU21D;51970;53.484;49.488;2023-05-23T12:20:43;29.95;15.38
65369;HTU21D;51970;53.484;49.488;2023-05-23T12:24:51;30.05;15.67
65369;HTU21D;51970;53.484;49.488;2023-05-23T12:35:51;30.37;14.97
65369;HTU21D;51970;53.484;49.488;2023-05-23T12:50:14;29.75;15.30
65369;HTU21D;51970;53.484;49.488;2023-05-23T13:15:19;29.86;14.07
65369;HTU21D;51970;53.484;49.488;2023-05-23T13:36:19;29.18;15.23
65369;HTU21D;51970;53.484;49.488;2023-05-23T13:43:37;28.90;15.62
65369;HTU21D;51970;53.484;49.488;2023-05-23T13:49:53;29.12;15.12
65369;HTU21D;51970;53.484;49.488;2023-05-23T13:53:19;29.08;15.55
65369;HTU21D;51970;53.484;49.488;2023-05-23T13:56:37;29.06;15.20
65369;HTU21D;51970;53.484;49.488;2023-05-23T14:00:03;29.00;15.27
65369;HTU21D;51970;53.484;49.488;2023-05-23T14:03:32;28.92;15.62
65369;HTU21D;51970;53.484;49.488;2023-05-23T14:09:23;28.69;15.97
65369;HTU21D;51970;53.484;49.488;2023-05-23T14:12:08;28.88;15.88
65369;HTU21D;51970;53.484;49.488;2023-05-23T14:15:01;29.43;15.09
65369;HTU21D;51970;53.484;49.488;2023-05-23T14:17:53;29.97;14.55
65369;HTU21D;51970;53.484;49.488;2023-05-23T14:20:31;30.04;13.94
65369;HTU21D;51970;53.484;49.488;2023-05-23T14:23:29;30.06;14.13
65369;HTU21D;51970;53.484;49.488;2023-05-23T14:26:46;30.16;14.14
65369;HTU21D;51970;53.484;49.488;2023-05-23T14:30:08;30.16;14.18
65369;HTU21D;51970;53.484;49.488;2023-05-23T14:44:51;31.46;13.42
65369;HTU21D;51970;53.484;49.488;2023-05-23T14:47:43;31.72;13.29
65369;HTU21D;51970;53.484;49.488;2023-05-23T14:50:57;31.09;13.79
65369;HTU21D;51970;53.484;49.488;2023-05-23T14:54:08;30.20;14.70
65369;HTU21D;51970;53.484;49.488;2023-05-23T14:57:13;29.33;15.71
65369;HTU21D;51970;53.484;49.488;2023-05-23T15:00:53;28.49;16.56
65369;HTU21D;51970;53.484;49.488;2023-05-23T15:07:10;28.06;17.39
65369;HTU21D;51970;53.484;49.488;2023-05-23T15:09:57;27.97;17.57
65369;HTU21D;51970;53.484;49.488;2023-05-23T15:22:41;27.64;18.05
65369;HTU21D;51970;53.484;49.488;2023-05-23T15:25:57;27.44;18.54
65369;HTU21D;51970;53.484;49.488;2023-05-23T15:32:30;27.23;19.15
65369;HTU21D;51970;53.484;49.488;2023-05-23T15:39:05;26.96;19.53
65369;HTU21D;51970;53.484;49.488;2023-05-23T15:42:28;26.81;19.75
65369;HTU21D;51970;53.484;49.488;2023-05-23T15:45:54;26.65;20.15
65369;HTU21D;51970;53.484;49.488;2023-05-23T15:49:52;26.50;20.46
65369;HTU21D;51970;53.484;49.488;2023-05-23T16:03:26;25.92;22.01
65369;HTU21D;51970;53.484;49.488;2023-05-23T16:07:18;25.76;22.36
65369;HTU21D;51970;53.484;49.488;2023-05-23T16:10:14;25.61;22.55
65369;HTU21D;51970;53.484;49.488;2023-05-23T16:23:25;25.09;23.69
65369;HTU21D;51970;53.484;49.488;2023-05-23T16:38:03;24.49;24.86
65369;HTU21D;51970;53.484;49.488;2023-05-23T16:41:17;24.38;24.96
65369;HTU21D;51970;53.484;49.488;2023-05-23T16:43:49;24.28;25.08
65369;HTU21D;51970;53.484;49.488;2023-05-23T16:46:37;24.18;25.33
65369;HTU21D;51970;53.484;49.488;2023-05-23T16:52:01;23.99;25.30
65369;HTU21D;51970;53.484;49.488;2023-05-23T17:02:11;23.71;25.36
65369;HTU21D;51970;53.484;49.488;2023-05-23T17:12:17;23.57;25.07
65369;HTU21D;51970;53.484;49.488;2023-05-23T17:18:34;23.37;25.12
65369;HTU21D;51970;53.484;49.488;2023-05-23T17:21:22;23.31;24.97
65369;HTU21D;51970;53.484;49.488;2023-05-23T17:24:11;23.28;24.96
65369;HTU21D;51970;53.484;49.488;2023-05-23T17:26:48;23.24;24.83
65369;HTU21D;51970;53.484;49.488;2023-05-23T17:33:16;23.17;24.73
65369;HTU21D;51970;53.484;49.488;2023-05-23T17:36:10;23.21;24.49
65369;HTU21D;51970;53.484;49.488;2023-05-23T17:38:57;23.14;24.74
65369;HTU21D;51970;53.484;49.488;2023-05-23T17:44:53;23.07;24.88
65369;HTU21D;51970;53.484;49.488;2023-05-23T17:48:25;23.03;25.01
65369;HTU21D;51970;53.484;49.488;2023-05-23T17:51:02;23.00;25.01
65369;HTU21D;51970;53.484;49.488;2023-05-23T18:00:51;22.77;25.56
65369;HTU21D;51970;53.484;49.488;2023-05-23T18:03:38;22.57;26.18
65369;HTU21D;51970;53.484;49.488;2023-05-23T18:06:35;22.47;26.26
65369;HTU21D;51970;53.484;49.488;2023-05-23T18:09:30;22.38;26.39
65369;HTU21D;51970;53.484;49.488;2023-05-23T18:12:00;22.33;26.52
65369;HTU21D;51970;53.484;49.488;2023-05-23T18:14:47;22.37;26.49
65369;HTU21D;51970;53.484;49.488;2023-05-23T18:17:25;22.21;27.06
65369;HTU21D;51970;53.484;49.488;2023-05-23T18:19:59;22.04;27.20
65369;HTU21D;51970;53.484;49.488;2023-05-23T18:22:42;21.93;27.35
65369;HTU21D;51970;53.484;49.488;2023-05-23T18:25:15;21.92;27.52
65369;HTU21D;51970;53.484;49.488;2023-05-23T18:31:11;21.73;27.81
65369;HTU21D;51970;53.484;49.488;2023-05-23T18:37:09;21.65;28.00
65369;HTU21D;51970;53.484;49.488;2023-05-23T18:47:08;21.46;28.44
65369;HTU21D;51970;53.484;49.488;2023-05-23T18:49:46;21.52;28.54
65369;HTU21D;51970;53.484;49.488;2023-05-23T18:52:57;21.44;28.43
65369;HTU21D;51970;53.484;49.488;2023-05-23T18:56:23;21.54;28.07
65369;HTU21D;51970;53.484;49.488;2023-05-23T19:02:06;21.50;28.30
65369;HTU21D;51970;53.484;49.488;2023-05-23T19:05:03;21.45;28.31
65369;HTU21D;51970;53.484;49.488;2023-05-23T19:07:56;21.34;28.79
65369;HTU21D;51970;53.484;49.488;2023-05-23T19:10:28;21.16;29.12
65369;HTU21D;51970;53.484;49.488;2023-05-23T19:29:51;20.96;29.66
65369;HTU21D;51970;53.484;49.488;2023-05-23T19:33:32;20.91;30.01
65369;HTU21D;51970;53.484;49.488;2023-05-23T19:37:06;20.75;30.48
65369;HTU21D;51970;53.484;49.488;2023-05-23T19:39:56;20.69;30.72
65369;HTU21D;51970;53.484;49.488;2023-05-23T19:42:49;20.62;31.60
65369;HTU21D;51970;53.484;49.488;2023-05-23T19:45:51;20.51;31.45
65369;HTU21D;51970;53.484;49.488;2023-05-23T19:48:24;20.58;31.19
65369;HTU21D;51970;53.484;49.488;2023-05-23T19:51:34;20.50;31.78
65369;HTU21D;51970;53.484;49.488;2023-05-23T19:54:28;20.42;32.53
65369;HTU21D;51970;53.484;49.488;2023-05-23T19:57:43;20.37;32.26
65369;HTU21D;51970;53.484;49.488;2023-05-23T20:01:06;20.31;32.95
65369;HTU21D;51970;53.484;49.488;2023-05-23T20:03:42;20.15;33.13
65369;HTU21D;51970;53.484;49.488;2023-05-23T20:07:28;20.09;33.71
65369;HTU21D;51970;53.484;49.488;2023-05-23T20:10:02;20.12;32.44
65369;HTU21D;51970;53.484;49.488;2023-05-23T20:12:37;20.19;32.85
65369;HTU21D;51970;53.484;49.488;2023-05-23T20:15:06;20.32;31.64
65369;HTU21D;51970;53.484;49.488;2023-05-23T20:17:54;20.60;31.40
65369;HTU21D;51970;53.484;49.488;2023-05-23T20:20:23;20.78;30.50
65369;HTU21D;51970;53.484;49.488;2023-05-23T20:22:53;20.96;30.05
65369;HTU21D;51970;53.484;49.488;2023-05-23T20:25:22;21.17;29.42
65369;HTU21D;51970;53.484;49.488;2023-05-23T20:28:07;21.50;28.58
65369;HTU21D;51970;53.484;49.488;2023-05-23T20:30:37;21.62;28.42
65369;HTU21D;51970;53.484;49.488;2023-05-23T20:33:05;21.74;28.05
65369;HTU21D;51970;53.484;49.488;2023-05-23T20:35:33;21.83;27.96
65369;HTU21D;51970;53.484;49.488;2023-05-23T20:38:04;21.84;28.09
65369;HTU21D;51970;53.484;49.488;2023-05-23T20:40:45;21.81;28.04
65369;HTU21D;51970;53.484;49.488;2023-05-23T20:43:15;21.82;28.04
65369;HTU21D;51970;53.484;49.488;2023-05-23T20:45:42;21.88;27.98
65369;HTU21D;51970;53.484;49.488;2023-05-23T20:48:10;21.90;28.16
65369;HTU21D;51970;53.484;49.488;2023-05-23T20:51:00;22.02;27.92
65369;HTU21D;51970;53.484;49.488;2023-05-23T20:53:41;22.04;27.91
65369;HTU21D;51970;53.484;49.488;2023-05-23T20:56:12;22.10;27.94
65369;HTU21D;51970;53.484;49.488;2023-05-23T20:58:38;22.14;27.70
65369;HTU21D;51970;53.484;49.488;2023-05-23T21:01:08;22.22;27.51
65369;HTU21D;51970;53.484;49.488;2023-05-23T21:03:34;22.29;27.28
65369;HTU21D;51970;53.484;49.488;2023-05-23T21:06:03;22.38;27.21
65369;HTU21D;51970;53.484;49.488;2023-05-23T21:08:58;22.36;27.36
65369;HTU21D;51970;53.484;49.488;2023-05-23T21:11:25;22.39;27.27
65369;HTU21D;51970;53.484;49.488;2023-05-23T21:13:51;22.40;27.25
65369;HTU21D;51970;53.484;49.488;2023-05-23T21:16:17;22.43;27.28
65369;HTU21D;51970;53.484;49.488;2023-05-23T21:18:45;22.49;27.21
65369;HTU21D;51970;53.484;49.488;2023-05-23T21:21:31;22.55;27.22
65369;HTU21D;51970;53.484;49.488;2023-05-23T21:24:04;22.54;27.09
65369;HTU21D;51970;53.484;49.488;2023-05-23T21:26:51;22.60;26.99
65369;HTU21D;51970;53.484;49.488;2023-05-23T21:29:17;22.56;27.26
65369;HTU21D;51970;53.484;49.488;2023-05-23T21:31:43;22.53;27.34
65369;HTU21D;51970;53.484;49.488;2023-05-23T21:34:16;22.55;27.41
65369;HTU21D;51970;53.484;49.488;2023-05-23T21:36:43;22.57;27.56
65369;HTU21D;51970;53.484;49.488;2023-05-23T21:39:11;22.58;27.49
65369;HTU21D;51970;53.484;49.488;2023-05-23T21:41:39;22.50;27.65
65369;HTU21D;51970;53.484;49.488;2023-05-23T21:44:05;22.51;27.67
65369;HTU21D;51970;53.484;49.488;2023-05-23T21:46:32;22.50;27.71
65369;HTU21D;51970;53.484;49.488;2023-05-23T21:49:21;22.51;27.76
65369;HTU21D;51970;53.484;49.488;2023-05-23T21:51:56;22.53;27.74
65369;HTU21D;51970;53.484;49.488;2023-05-23T21:54:27;22.57;27.69
65369;HTU21D;51970;53.484;49.488;2023-05-23T21:56:54;22.56;27.59
65369;HTU21D;51970;53.484;49.488;2023-05-23T21:59:22;22.55;27.74
65369;HTU21D;51970;53.484;49.488;2023-05-23T22:01:49;22.51;27.83
65369;HTU21D;51970;53.484;49.488;2023-05-23T22:04:56;22.46;28.13
65369;HTU21D;51970;53.484;49.488;2023-05-23T22:07:51;22.42;27.99
65369;HTU21D;51970;53.484;49.488;2023-05-23T22:10:19;22.43;28.07
65369;HTU21D;51970;53.484;49.488;2023-05-23T22:12:45;22.46;28.03
65369;HTU21D;51970;53.484;49.488;2023-05-23T22:15:11;22.46;27.99
65369;HTU21D;51970;53.484;49.488;2023-05-23T22:17:38;22.46;28.16
65369;HTU21D;51970;53.484;49.488;2023-05-23T22:20:11;22.43;28.11
65369;HTU21D;51970;53.484;49.488;2023-05-23T22:22:41;22.42;28.21
65369;HTU21D;51970;53.484;49.488;2023-05-23T22:25:07;22.40;28.00
65369;HTU21D;51970;53.484;49.488;2023-05-23T22:27:33;22.42;27.92
65369;HTU21D;51970;53.484;49.488;2023-05-23T22:29:59;22.39;28.18
65369;HTU21D;51970;53.484;49.488;2023-05-23T22:32:25;22.38;28.26
65369;HTU21D;51970;53.484;49.488;2023-05-23T22:34:51;22.36;28.39
65369;HTU21D;51970;53.484;49.488;2023-05-23T22:37:38;22.33;28.41
65369;HTU21D;51970;53.484;49.488;2023-05-23T22:40:15;22.31;28.48
65369;HTU21D;51970;53.484;49.488;2023-05-23T22:42:53;22.31;28.74
65369;HTU21D;51970;53.484;49.488;2023-05-23T22:45:19;22.26;28.62
65369;HTU21D;51970;53.484;49.488;2023-05-23T22:47:45;22.21;28.77
65369;HTU21D;51970;53.484;49.488;2023-05-23T22:50:13;22.20;28.74
65369;HTU21D;51970;53.484;49.488;2023-05-23T22:52:39;22.20;28.90
65369;HTU21D;51970;53.484;49.488;2023-05-23T22:55:06;22.18;28.97
65369;HTU21D;51970;53.484;49.488;2023-05-23T22:57:32;22.12;29.29
65369;HTU21D;51970;53.484;49.488;2023-05-23T22:59:58;22.11;29.22